sensor_id;sensor_type;location;lat;lon;timestamp;temperature;humidity
18291;DHT22;9271;48.590;8.866;2022-12-29T00:01:45;10.10;95.30
18291;DHT22;9271;48.590;8.866;2022-12-29T00:04:13;10.20;95.10
18291;DHT22;9271;48.590;8.866;2022-12-29T00:06:40;10.30;94.90
18291;DHT22;9271;48.590;8.866;2022-12-29T00:09:10;10.40;94.80
18291;DHT22;9271;48.590;8.866;2022-12-29T00:11:37;10.40;94.70
18291;DHT22;9271;48.590;8.866;2022-12-29T00:14:04;10.20;95.20
18291;DHT22;9271;48.590;8.866;2022-12-29T00:16:49;10.30;95.00
18291;DHT22;9271;48.590;8.866;2022-12-29T00:19:15;10.40;94.60
18291;DHT22;9271;48.590;8.866;2022-12-29T00:22:00;10.50;94.70
18291;DHT22;9271;48.590;8.866;2022-12-29T00:24:45;10.40;94.60
18291;DHT22;9271;48.590;8.866;2022-12-29T00:27:30;10.30;94.80
18291;DHT22;9271;48.590;8.866;2022-12-29T00:30:16;10.10;95.00
18291;DHT22;9271;48.590;8.866;2022-12-29T00:33:04;10.00;95.30
18291;DHT22;9271;48.590;8.866;2022-12-29T00:35:54;10.20;95.10
18291;DHT22;9271;48.590;8.866;2022-12-29T00:38:23;10.50;95.20
18291;DHT22;9271;48.590;8.866;2022-12-29T00:41:09;10.40;94.90
18291;DHT22;9271;48.590;8.866;2022-12-29T00:43:53;10.40;95.10
18291;DHT22;9271;48.590;8.866;2022-12-29T00:46:32;10.60;94.90
18291;DHT22;9271;48.590;8.866;2022-12-29T00:48:59;10.70;94.50
18291;DHT22;9271;48.590;8.866;2022-12-29T00:51:43;10.60;94.50
18291;DHT22;9271;48.590;8.866;2022-12-29T00:54:10;10.50;94.40
18291;DHT22;9271;48.590;8.866;2022-12-29T00:56:38;10.40;94.30
18291;DHT22;9271;48.590;8.866;2022-12-29T00:59:07;10.30;94.70
18291;DHT22;9271;48.590;8.866;2022-12-29T01:01:34;10.40;95.20
18291;DHT22;9271;48.590;8.866;2022-12-29T01:04:01;10.40;94.80
18291;DHT22;9271;48.590;8.866;2022-12-29T01:06:28;10.30;95.00
18291;DHT22;9271;48.590;8.866;2022-12-29T01:08:55;10.40;94.90
18291;DHT22;9271;48.590;8.866;2022-12-29T01:11:35;10.40;95.40
18291;DHT22;9271;48.590;8.866;2022-12-29T01:14:04;10.40;94.80
18291;DHT22;9271;48.590;8.866;2022-12-29T01:16:31;10.40;95.00
18291;DHT22;9271;48.590;8.866;2022-12-29T01:18:58;10.50;94.90
18291;DHT22;9271;48.590;8.866;2022-12-29T01:21:25;10.40;95.00
18291;DHT22;9271;48.590;8.866;2022-12-29T01:23:51;10.50;94.80
18291;DHT22;9271;48.590;8.866;2022-12-29T01:26:18;10.50;94.70
18291;DHT22;9271;48.590;8.866;2022-12-29T01:28:45;10.70;94.90
18291;DHT22;9271;48.590;8.866;2022-12-29T01:31:15;10.70;94.50
18291;DHT22;9271;48.590;8.866;2022-12-29T01:33:42;10.60;95.10
18291;DHT22;9271;48.590;8.866;2022-12-29T01:36:10;10.80;95.10
18291;DHT22;9271;48.590;8.866;2022-12-29T01:38:38;11.10;94.00
18291;DHT22;9271;48.590;8.866;2022-12-29T01:41:06;11.10;93.80
18291;DHT22;9271;48.590;8.866;2022-12-29T01:43:41;11.10;93.80
18291;DHT22;9271;48.590;8.866;2022-12-29T01:46:18;11.00;94.00
18291;DHT22;9271;48.590;8.866;2022-12-29T01:48:47;11.10;94.00
18291;DHT22;9271;48.590;8.866;2022-12-29T01:51:15;11.10;93.80
18291;DHT22;9271;48.590;8.866;2022-12-29T01:53:43;10.90;93.80
18291;DHT22;9271;48.590;8.866;2022-12-29T01:56:13;11.10;93.60
18291;DHT22;9271;48.590;8.866;2022-12-29T01:58:44;11.30;93.60
18291;DHT22;9271;48.590;8.866;2022-12-29T02:01:13;11.40;93.30
18291;DHT22;9271;48.590;8.866;2022-12-29T02:03:42;11.30;93.30
18291;DHT22;9271;48.590;8.866;2022-12-29T02:06:11;11.30;93.60
18291;DHT22;9271;48.590;8.866;2022-12-29T02:08:39;11.30;93.50
18291;DHT22;9271;48.590;8.866;2022-12-29T02:11:07;11.30;93.50
18291;DHT22;9271;48.590;8.866;2022-12-29T02:13:34;11.40;93.20
18291;DHT22;9271;48.590;8.866;2022-12-29T02:16:08;11.20;93.80
18291;DHT22;9271;48.590;8.866;2022-12-29T02:18:48;11.20;93.50
18291;DHT22;9271;48.590;8.866;2022-12-29T02:21:41;11.30;93.30
18291;DHT22;9271;48.590;8.866;2022-12-29T02:27:27;11.20;93.50
18291;DHT22;9271;48.590;8.866;2022-12-29T02:30:05;10.90;93.70
18291;DHT22;9271;48.590;8.866;2022-12-29T02:32:38;10.90;94.40
18291;DHT22;9271;48.590;8.866;2022-12-29T02:35:13;11.10;93.70
18291;DHT22;9271;48.590;8.866;2022-12-29T02:37:49;11.10;93.50
18291;DHT22;9271;48.590;8.866;2022-12-29T02:40:24;10.80;94.50
18291;DHT22;9271;48.590;8.866;2022-12-29T02:42:55;10.90;94.30
18291;DHT22;9271;48.590;8.866;2022-12-29T02:45:29;11.20;93.90
18291;DHT22;9271;48.590;8.866;2022-12-29T02:48:03;11.20;93.80
18291;DHT22;9271;48.590;8.866;2022-12-29T02:50:33;10.90;94.30
18291;DHT22;9271;48.590;8.866;2022-12-29T02:53:04;10.90;94.30
18291;DHT22;9271;48.590;8.866;2022-12-29T02:55:31;11.00;94.50
18291;DHT22;9271;48.590;8.866;2022-12-29T02:58:15;11.20;94.10
18291;DHT22;9271;48.590;8.866;2022-12-29T03:00:53;11.20;93.90
18291;DHT22;9271;48.590;8.866;2022-12-29T03:03:32;11.20;94.20
18291;DHT22;9271;48.590;8.866;2022-12-29T03:06:19;11.10;94.00
18291;DHT22;9271;48.590;8.866;2022-12-29T03:08:54;11.20;94.10
18291;DHT22;9271;48.590;8.866;2022-12-29T03:11:25;11.40;94.00
18291;DHT22;9271;48.590;8.866;2022-12-29T03:14:12;11.80;93.80
18291;DHT22;9271;48.590;8.866;2022-12-29T03:17:03;12.10;93.00
18291;DHT22;9271;48.590;8.866;2022-12-29T03:19:39;12.10;92.90
18291;DHT22;9271;48.590;8.866;2022-12-29T03:22:09;12.00;93.30
18291;DHT22;9271;48.590;8.866;2022-12-29T03:24:59;12.10;93.10
18291;DHT22;9271;48.590;8.866;2022-12-29T03:27:32;12.30;93.00
18291;DHT22;9271;48.590;8.866;2022-12-29T03:30:02;12.40;92.80
18291;DHT22;9271;48.590;8.866;2022-12-29T03:32:32;12.30;93.20
18291;DHT22;9271;48.590;8.866;2022-12-29T03:35:02;12.40;92.90
18291;DHT22;9271;48.590;8.866;2022-12-29T03:37:34;12.40;93.00
18291;DHT22;9271;48.590;8.866;2022-12-29T03:40:01;12.60;92.90
18291;DHT22;9271;48.590;8.866;2022-12-29T03:42:31;12.70;92.80
18291;DHT22;9271;48.590;8.866;2022-12-29T03:44:58;12.40;93.00
18291;DHT22;9271;48.590;8.866;2022-12-29T03:47:25;12.50;92.90
18291;DHT22;9271;48.590;8.866;2022-12-29T03:49:52;12.50;93.00
18291;DHT22;9271;48.590;8.866;2022-12-29T03:52:20;12.20;93.30
18291;DHT22;9271;48.590;8.866;2022-12-29T03:54:47;12.30;93.40
18291;DHT22;9271;48.590;8.866;2022-12-29T03:57:14;12.40;93.20
18291;DHT22;9271;48.590;8.866;2022-12-29T03:59:40;12.20;93.40
18291;DHT22;9271;48.590;8.866;2022-12-29T04:02:07;12.20;93.70
18291;DHT22;9271;48.590;8.866;2022-12-29T04:04:34;12.00;93.80
18291;DHT22;9271;48.590;8.866;2022-12-29T04:07:01;11.90;94.10
18291;DHT22;9271;48.590;8.866;2022-12-29T04:09:29;11.90;94.30
18291;DHT22;9271;48.590;8.866;2022-12-29T04:11:56;12.10;94.10
18291;DHT22;9271;48.590;8.866;2022-12-29T04:14:23;12.40;93.60
18291;DHT22;9271;48.590;8.866;2022-12-29T04:16:49;12.30;93.90
18291;DHT22;9271;48.590;8.866;2022-12-29T04:19:16;12.10;94.10
18291;DHT22;9271;48.590;8.866;2022-12-29T04:21:43;12.00;94.30
18291;DHT22;9271;48.590;8.866;2022-12-29T04:24:09;12.00;94.40
18291;DHT22;9271;48.590;8.866;2022-12-29T04:26:39;12.00;94.40
18291;DHT22;9271;48.590;8.866;2022-12-29T04:29:06;12.10;94.30
18291;DHT22;9271;48.590;8.866;2022-12-29T04:31:33;11.90;94.40
18291;DHT22;9271;48.590;8.866;2022-12-29T04:33:59;12.20;94.10
18291;DHT22;9271;48.590;8.866;2022-12-29T04:36:26;11.90;94.50
18291;DHT22;9271;48.590;8.866;2022-12-29T04:38:53;11.80;94.80
18291;DHT22;9271;48.590;8.866;2022-12-29T04:41:19;11.90;94.60
18291;DHT22;9271;48.590;8.866;2022-12-29T04:43:47;11.90;94.70
18291;DHT22;9271;48.590;8.866;2022-12-29T04:46:14;11.70;95.20
18291;DHT22;9271;48.590;8.866;2022-12-29T04:48:40;11.70;95.00
18291;DHT22;9271;48.590;8.866;2022-12-29T04:51:07;11.70;95.00
18291;DHT22;9271;48.590;8.866;2022-12-29T04:53:34;11.70;95.00
18291;DHT22;9271;48.590;8.866;2022-12-29T04:56:00;11.70;95.00
18291;DHT22;9271;48.590;8.866;2022-12-29T04:58:27;11.70;94.90
18291;DHT22;9271;48.590;8.866;2022-12-29T05:00:55;11.70;95.00
18291;DHT22;9271;48.590;8.866;2022-12-29T05:03:22;11.70;95.30
18291;DHT22;9271;48.590;8.866;2022-12-29T05:05:48;11.80;94.80
18291;DHT22;9271;48.590;8.866;2022-12-29T05:08:15;11.90;94.80
18291;DHT22;9271;48.590;8.866;2022-12-29T05:10:44;11.80;94.80
18291;DHT22;9271;48.590;8.866;2022-12-29T05:13:11;11.80;94.90
18291;DHT22;9271;48.590;8.866;2022-12-29T05:15:37;11.90;94.80
18291;DHT22;9271;48.590;8.866;2022-12-29T05:18:05;12.00;94.60
18291;DHT22;9271;48.590;8.866;2022-12-29T05:20:32;12.00;94.70
18291;DHT22;9271;48.590;8.866;2022-12-29T05:22:59;11.80;95.00
18291;DHT22;9271;48.590;8.866;2022-12-29T05:25:25;11.90;94.80
18291;DHT22;9271;48.590;8.866;2022-12-29T05:27:52;12.00;94.60
18291;DHT22;9271;48.590;8.866;2022-12-29T05:30:18;11.80;95.20
18291;DHT22;9271;48.590;8.866;2022-12-29T05:32:45;11.90;95.20
18291;DHT22;9271;48.590;8.866;2022-12-29T05:35:13;12.00;94.60
18291;DHT22;9271;48.590;8.866;2022-12-29T05:37:40;12.00;94.70
18291;DHT22;9271;48.590;8.866;2022-12-29T05:40:08;12.00;94.60
18291;DHT22;9271;48.590;8.866;2022-12-29T05:42:34;12.10;94.50
18291;DHT22;9271;48.590;8.866;2022-12-29T05:45:01;12.00;94.50
18291;DHT22;9271;48.590;8.866;2022-12-29T05:47:28;12.00;94.70
18291;DHT22;9271;48.590;8.866;2022-12-29T05:49:54;12.10;94.50
18291;DHT22;9271;48.590;8.866;2022-12-29T05:52:22;12.10;94.50
18291;DHT22;9271;48.590;8.866;2022-12-29T05:54:49;12.10;94.30
18291;DHT22;9271;48.590;8.866;2022-12-29T05:57:15;12.30;94.10
18291;DHT22;9271;48.590;8.866;2022-12-29T05:59:42;12.20;94.20
18291;DHT22;9271;48.590;8.866;2022-12-29T06:02:09;12.20;94.30
18291;DHT22;9271;48.590;8.866;2022-12-29T06:04:36;12.30;93.90
18291;DHT22;9271;48.590;8.866;2022-12-29T06:07:02;12.40;93.90
18291;DHT22;9271;48.590;8.866;2022-12-29T06:09:30;12.40;93.80
18291;DHT22;9271;48.590;8.866;2022-12-29T06:11:57;12.20;94.00
18291;DHT22;9271;48.590;8.866;2022-12-29T06:14:23;12.30;94.00
18291;DHT22;9271;48.590;8.866;2022-12-29T06:16:50;12.40;93.80
18291;DHT22;9271;48.590;8.866;2022-12-29T06:19:17;12.30;93.60
18291;DHT22;9271;48.590;8.866;2022-12-29T06:21:43;12.30;93.70
18291;DHT22;9271;48.590;8.866;2022-12-29T06:24:10;12.40;93.60
18291;DHT22;9271;48.590;8.866;2022-12-29T06:26:38;12.60;93.50
18291;DHT22;9271;48.590;8.866;2022-12-29T06:29:05;12.80;93.60
18291;DHT22;9271;48.590;8.866;2022-12-29T06:31:32;13.00;93.00
18291;DHT22;9271;48.590;8.866;2022-12-29T06:33:59;12.80;93.10
18291;DHT22;9271;48.590;8.866;2022-12-29T06:36:25;12.60;93.10
18291;DHT22;9271;48.590;8.866;2022-12-29T06:38:52;11.80;94.00
18291;DHT22;9271;48.590;8.866;2022-12-29T06:41:19;11.90;94.50
18291;DHT22;9271;48.590;8.866;2022-12-29T06:43:47;12.00;94.10
18291;DHT22;9271;48.590;8.866;2022-12-29T06:46:14;12.00;94.20
18291;DHT22;9271;48.590;8.866;2022-12-29T06:48:41;12.00;94.00
18291;DHT22;9271;48.590;8.866;2022-12-29T06:51:08;12.00;93.90
18291;DHT22;9271;48.590;8.866;2022-12-29T06:53:35;11.80;94.10
18291;DHT22;9271;48.590;8.866;2022-12-29T06:56:01;11.60;94.40
18291;DHT22;9271;48.590;8.866;2022-12-29T06:58:28;11.40;94.80
18291;DHT22;9271;48.590;8.866;2022-12-29T07:00:56;11.50;94.60
18291;DHT22;9271;48.590;8.866;2022-12-29T07:03:23;11.70;94.60
18291;DHT22;9271;48.590;8.866;2022-12-29T07:05:50;11.60;94.50
18291;DHT22;9271;48.590;8.866;2022-12-29T07:08:17;11.30;94.80
18291;DHT22;9271;48.590;8.866;2022-12-29T07:10:43;11.30;94.90
18291;DHT22;9271;48.590;8.866;2022-12-29T07:13:10;11.40;94.80
18291;DHT22;9271;48.590;8.866;2022-12-29T07:15:37;11.50;94.70
18291;DHT22;9271;48.590;8.866;2022-12-29T07:18:05;11.40;94.80
18291;DHT22;9271;48.590;8.866;2022-12-29T07:20:32;11.10;95.10
18291;DHT22;9271;48.590;8.866;2022-12-29T07:22:59;11.30;94.80
18291;DHT22;9271;48.590;8.866;2022-12-29T07:25:25;11.20;94.90
18291;DHT22;9271;48.590;8.866;2022-12-29T07:27:53;10.90;95.40
18291;DHT22;9271;48.590;8.866;2022-12-29T07:30:20;10.80;95.50
18291;DHT22;9271;48.590;8.866;2022-12-29T07:32:46;10.90;95.60
18291;DHT22;9271;48.590;8.866;2022-12-29T07:35:14;11.00;95.40
18291;DHT22;9271;48.590;8.866;2022-12-29T07:37:41;11.40;94.80
18291;DHT22;9271;48.590;8.866;2022-12-29T07:40:09;11.30;94.90
18291;DHT22;9271;48.590;8.866;2022-12-29T07:42:36;11.30;95.00
18291;DHT22;9271;48.590;8.866;2022-12-29T07:45:03;11.20;95.10
18291;DHT22;9271;48.590;8.866;2022-12-29T07:47:30;11.40;94.90
18291;DHT22;9271;48.590;8.866;2022-12-29T07:49:57;11.70;94.60
18291;DHT22;9271;48.590;8.866;2022-12-29T07:52:25;11.50;94.70
18291;DHT22;9271;48.590;8.866;2022-12-29T07:54:51;11.60;94.70
18291;DHT22;9271;48.590;8.866;2022-12-29T07:57:18;11.50;94.90
18291;DHT22;9271;48.590;8.866;2022-12-29T07:59:45;11.40;95.00
18291;DHT22;9271;48.590;8.866;2022-12-29T08:02:11;11.40;95.20
18291;DHT22;9271;48.590;8.866;2022-12-29T08:04:38;11.50;95.10
18291;DHT22;9271;48.590;8.866;2022-12-29T08:07:05;12.00;94.40
18291;DHT22;9271;48.590;8.866;2022-12-29T08:09:33;11.90;94.50
18291;DHT22;9271;48.590;8.866;2022-12-29T08:11:59;11.90;94.40
18291;DHT22;9271;48.590;8.866;2022-12-29T08:14:26;11.80;94.70
18291;DHT22;9271;48.590;8.866;2022-12-29T08:16:53;12.00;94.60
18291;DHT22;9271;48.590;8.866;2022-12-29T08:19:19;12.30;94.00
18291;DHT22;9271;48.590;8.866;2022-12-29T08:21:46;12.30;94.30
18291;DHT22;9271;48.590;8.866;2022-12-29T08:24:13;12.40;94.10
18291;DHT22;9271;48.590;8.866;2022-12-29T08:26:41;12.70;93.50
18291;DHT22;9271;48.590;8.866;2022-12-29T08:29:07;12.70;93.10
18291;DHT22;9271;48.590;8.866;2022-12-29T08:31:34;12.70;93.10
18291;DHT22;9271;48.590;8.866;2022-12-29T08:34:01;12.60;93.30
18291;DHT22;9271;48.590;8.866;2022-12-29T08:36:29;12.60;93.40
18291;DHT22;9271;48.590;8.866;2022-12-29T08:38:55;12.50;93.60
18291;DHT22;9271;48.590;8.866;2022-12-29T08:41:22;12.70;93.50
18291;DHT22;9271;48.590;8.866;2022-12-29T08:43:50;12.60;93.30
18291;DHT22;9271;48.590;8.866;2022-12-29T08:46:17;12.40;92.90
18291;DHT22;9271;48.590;8.866;2022-12-29T08:48:44;12.50;92.60
18291;DHT22;9271;48.590;8.866;2022-12-29T08:51:11;12.70;92.60
18291;DHT22;9271;48.590;8.866;2022-12-29T08:53:38;12.80;92.20
18291;DHT22;9271;48.590;8.866;2022-12-29T08:56:06;13.00;92.30
18291;DHT22;9271;48.590;8.866;2022-12-29T08:58:33;13.10;91.60
18291;DHT22;9271;48.590;8.866;2022-12-29T09:01:01;13.00;91.90
18291;DHT22;9271;48.590;8.866;2022-12-29T09:03:27;13.10;91.80
18291;DHT22;9271;48.590;8.866;2022-12-29T09:05:55;13.10;91.80
18291;DHT22;9271;48.590;8.866;2022-12-29T09:08:22;13.10;91.80
18291;DHT22;9271;48.590;8.866;2022-12-29T09:10:49;13.30;91.50
18291;DHT22;9271;48.590;8.866;2022-12-29T09:13:16;13.40;91.50
18291;DHT22;9271;48.590;8.866;2022-12-29T09:15:43;13.60;91.10
18291;DHT22;9271;48.590;8.866;2022-12-29T09:18:12;13.50;91.10
18291;DHT22;9271;48.590;8.866;2022-12-29T09:20:38;13.40;91.50
18291;DHT22;9271;48.590;8.866;2022-12-29T09:23:05;13.40;91.50
18291;DHT22;9271;48.590;8.866;2022-12-29T09:25:32;13.40;91.60
18291;DHT22;9271;48.590;8.866;2022-12-29T09:27:59;13.40;91.60
18291;DHT22;9271;48.590;8.866;2022-12-29T09:30:28;13.60;91.60
18291;DHT22;9271;48.590;8.866;2022-12-29T09:32:54;14.20;90.90
18291;DHT22;9271;48.590;8.866;2022-12-29T09:35:22;14.10;91.00
18291;DHT22;9271;48.590;8.866;2022-12-29T09:37:49;14.20;91.10
18291;DHT22;9271;48.590;8.866;2022-12-29T09:40:28;14.30;90.80
18291;DHT22;9271;48.590;8.866;2022-12-29T09:46:03;15.50;88.80
18291;DHT22;9271;48.590;8.866;2022-12-29T09:48:36;15.20;88.40
18291;DHT22;9271;48.590;8.866;2022-12-29T09:51:10;14.60;90.20
18291;DHT22;9271;48.590;8.866;2022-12-29T09:53:40;14.20;90.90
18291;DHT22;9271;48.590;8.866;2022-12-29T09:56:14;14.00;91.20
18291;DHT22;9271;48.590;8.866;2022-12-29T09:58:44;13.80;91.60
18291;DHT22;9271;48.590;8.866;2022-12-29T10:01:20;13.80;91.80
18291;DHT22;9271;48.590;8.866;2022-12-29T10:03:50;13.60;92.00
18291;DHT22;9271;48.590;8.866;2022-12-29T10:06:23;13.50;92.20
18291;DHT22;9271;48.590;8.866;2022-12-29T10:08:57;13.70;92.20
18291;DHT22;9271;48.590;8.866;2022-12-29T10:11:37;13.90;91.70
18291;DHT22;9271;48.590;8.866;2022-12-29T10:14:20;13.80;91.90
18291;DHT22;9271;48.590;8.866;2022-12-29T10:16:57;14.20;91.90
18291;DHT22;9271;48.590;8.866;2022-12-29T10:19:38;14.70;90.70
18291;DHT22;9271;48.590;8.866;2022-12-29T10:22:19;14.50;91.00
18291;DHT22;9271;48.590;8.866;2022-12-29T10:24:51;14.20;91.20
18291;DHT22;9271;48.590;8.866;2022-12-29T10:27:20;14.10;91.60
18291;DHT22;9271;48.590;8.866;2022-12-29T10:29:49;14.20;91.80
18291;DHT22;9271;48.590;8.866;2022-12-29T10:32:23;14.20;91.50
18291;DHT22;9271;48.590;8.866;2022-12-29T10:34:56;14.00;91.70
18291;DHT22;9271;48.590;8.866;2022-12-29T10:37:32;13.80;91.90
18291;DHT22;9271;48.590;8.866;2022-12-29T10:40:03;13.90;91.90
18291;DHT22;9271;48.590;8.866;2022-12-29T10:42:40;13.80;92.10
18291;DHT22;9271;48.590;8.866;2022-12-29T10:45:12;13.70;92.00
18291;DHT22;9271;48.590;8.866;2022-12-29T10:47:50;13.50;92.30
18291;DHT22;9271;48.590;8.866;2022-12-29T10:50:19;13.60;92.50
18291;DHT22;9271;48.590;8.866;2022-12-29T10:52:48;13.70;92.40
18291;DHT22;9271;48.590;8.866;2022-12-29T10:55:18;14.10;91.60
18291;DHT22;9271;48.590;8.866;2022-12-29T10:57:46;14.10;91.70
18291;DHT22;9271;48.590;8.866;2022-12-29T11:00:16;13.90;92.10
18291;DHT22;9271;48.590;8.866;2022-12-29T11:05:55;14.00;92.10
18291;DHT22;9271;48.590;8.866;2022-12-29T11:08:30;14.10;92.50
18291;DHT22;9271;48.590;8.866;2022-12-29T11:10:58;13.90;93.20
18291;DHT22;9271;48.590;8.866;2022-12-29T11:13:28;13.70;93.70
18291;DHT22;9271;48.590;8.866;2022-12-29T11:15:56;13.70;93.90
18291;DHT22;9271;48.590;8.866;2022-12-29T11:18:23;13.60;94.20
18291;DHT22;9271;48.590;8.866;2022-12-29T11:20:52;13.50;95.00
18291;DHT22;9271;48.590;8.866;2022-12-29T11:23:36;13.70;95.00
18291;DHT22;9271;48.590;8.866;2022-12-29T11:26:14;13.80;94.60
18291;DHT22;9271;48.590;8.866;2022-12-29T11:28:43;14.50;94.30
18291;DHT22;9271;48.590;8.866;2022-12-29T11:31:10;15.80;92.10
18291;DHT22;9271;48.590;8.866;2022-12-29T11:33:38;15.80;91.80
18291;DHT22;9271;48.590;8.866;2022-12-29T11:36:07;15.20;92.30
18291;DHT22;9271;48.590;8.866;2022-12-29T11:38:38;14.30;93.10
18291;DHT22;9271;48.590;8.866;2022-12-29T11:41:09;13.90;93.70
18291;DHT22;9271;48.590;8.866;2022-12-29T11:43:38;13.20;94.80
18291;DHT22;9271;48.590;8.866;2022-12-29T11:46:06;13.30;94.90
18291;DHT22;9271;48.590;8.866;2022-12-29T11:48:39;13.40;95.00
18291;DHT22;9271;48.590;8.866;2022-12-29T11:51:06;13.30;95.50
18291;DHT22;9271;48.590;8.866;2022-12-29T11:53:39;12.90;95.90
18291;DHT22;9271;48.590;8.866;2022-12-29T11:56:10;13.00;96.50
18291;DHT22;9271;48.590;8.866;2022-12-29T11:58:39;13.00;96.40
18291;DHT22;9271;48.590;8.866;2022-12-29T12:01:10;13.30;96.10
18291;DHT22;9271;48.590;8.866;2022-12-29T12:03:42;13.10;96.30
18291;DHT22;9271;48.590;8.866;2022-12-29T12:06:15;13.00;96.60
18291;DHT22;9271;48.590;8.866;2022-12-29T12:08:50;12.80;97.00
18291;DHT22;9271;48.590;8.866;2022-12-29T12:11:21;12.80;97.10
18291;DHT22;9271;48.590;8.866;2022-12-29T12:13:55;12.80;97.70
18291;DHT22;9271;48.590;8.866;2022-12-29T12:16:28;12.70;98.10
18291;DHT22;9271;48.590;8.866;2022-12-29T12:19:02;12.70;99.20
18291;DHT22;9271;48.590;8.866;2022-12-29T12:21:34;12.60;98.80
18291;DHT22;9271;48.590;8.866;2022-12-29T12:24:23;12.50;99.40
18291;DHT22;9271;48.590;8.866;2022-12-29T12:26:59;12.50;99.10
18291;DHT22;9271;48.590;8.866;2022-12-29T12:29:34;12.70;99.00
18291;DHT22;9271;48.590;8.866;2022-12-29T12:32:05;12.50;99.40
18291;DHT22;9271;48.590;8.866;2022-12-29T12:34:38;12.40;99.80
18291;DHT22;9271;48.590;8.866;2022-12-29T12:37:17;12.20;99.90
18291;DHT22;9271;48.590;8.866;2022-12-29T12:40:15;12.20;99.90
18291;DHT22;9271;48.590;8.866;2022-12-29T12:42:56;12.50;99.90
18291;DHT22;9271;48.590;8.866;2022-12-29T12:45:38;13.00;99.00
18291;DHT22;9271;48.590;8.866;2022-12-29T12:48:21;13.00;98.80
18291;DHT22;9271;48.590;8.866;2022-12-29T12:50:55;13.00;99.00
18291;DHT22;9271;48.590;8.866;2022-12-29T12:53:39;14.20;97.90
18291;DHT22;9271;48.590;8.866;2022-12-29T12:56:31;16.60;94.80
18291;DHT22;9271;48.590;8.866;2022-12-29T12:59:06;17.70;91.90
18291;DHT22;9271;48.590;8.866;2022-12-29T13:01:41;18.10;91.00
18291;DHT22;9271;48.590;8.866;2022-12-29T13:04:32;17.00;91.90
18291;DHT22;9271;48.590;8.866;2022-12-29T13:07:11;16.00;93.10
18291;DHT22;9271;48.590;8.866;2022-12-29T13:09:48;15.20;93.90
18291;DHT22;9271;48.590;8.866;2022-12-29T13:12:32;15.20;94.40
18291;DHT22;9271;48.590;8.866;2022-12-29T13:15:11;14.80;95.10
18291;DHT22;9271;48.590;8.866;2022-12-29T13:17:44;14.00;96.70
18291;DHT22;9271;48.590;8.866;2022-12-29T13:20:20;13.60;97.50
18291;DHT22;9271;48.590;8.866;2022-12-29T13:22:57;13.40;98.00
18291;DHT22;9271;48.590;8.866;2022-12-29T13:25:31;13.10;98.80
18291;DHT22;9271;48.590;8.866;2022-12-29T13:28:06;12.90;99.60
18291;DHT22;9271;48.590;8.866;2022-12-29T13:30:41;13.00;99.50
18291;DHT22;9271;48.590;8.866;2022-12-29T13:33:18;13.30;98.80
18291;DHT22;9271;48.590;8.866;2022-12-29T13:35:55;13.50;98.90
18291;DHT22;9271;48.590;8.866;2022-12-29T13:38:26;13.60;98.60
18291;DHT22;9271;48.590;8.866;2022-12-29T13:40:59;13.50;99.00
18291;DHT22;9271;48.590;8.866;2022-12-29T13:43:27;13.50;98.70
18291;DHT22;9271;48.590;8.866;2022-12-29T13:45:58;13.60;98.00
18291;DHT22;9271;48.590;8.866;2022-12-29T13:48:35;13.70;98.10
18291;DHT22;9271;48.590;8.866;2022-12-29T13:51:02;13.50;98.20
18291;DHT22;9271;48.590;8.866;2022-12-29T13:53:34;13.70;98.10
18291;DHT22;9271;48.590;8.866;2022-12-29T13:56:07;14.60;97.00
18291;DHT22;9271;48.590;8.866;2022-12-29T13:58:41;15.40;95.40
18291;DHT22;9271;48.590;8.866;2022-12-29T14:01:15;15.60;95.60
18291;DHT22;9271;48.590;8.866;2022-12-29T14:03:49;16.40;93.80
18291;DHT22;9271;48.590;8.866;2022-12-29T14:06:24;15.80;94.30
18291;DHT22;9271;48.590;8.866;2022-12-29T14:08:53;16.40;93.90
18291;DHT22;9271;48.590;8.866;2022-12-29T14:11:23;16.80;93.20
18291;DHT22;9271;48.590;8.866;2022-12-29T14:13:53;17.20;91.70
18291;DHT22;9271;48.590;8.866;2022-12-29T14:16:31;16.50;92.70
18291;DHT22;9271;48.590;8.866;2022-12-29T14:19:13;15.50;93.60
18291;DHT22;9271;48.590;8.866;2022-12-29T14:21:50;14.60;94.90
18291;DHT22;9271;48.590;8.866;2022-12-29T14:24:32;14.00;95.80
18291;DHT22;9271;48.590;8.866;2022-12-29T14:30:46;13.40;96.50
18291;DHT22;9271;48.590;8.866;2022-12-29T14:33:14;13.10;97.20
18291;DHT22;9271;48.590;8.866;2022-12-29T14:35:42;13.20;97.20
18291;DHT22;9271;48.590;8.866;2022-12-29T14:38:16;13.00;97.10
18291;DHT22;9271;48.590;8.866;2022-12-29T14:40:44;13.00;97.50
18291;DHT22;9271;48.590;8.866;2022-12-29T14:43:13;13.00;97.10
18291;DHT22;9271;48.590;8.866;2022-12-29T14:45:42;12.80;97.40
18291;DHT22;9271;48.590;8.866;2022-12-29T14:48:25;12.80;97.20
18291;DHT22;9271;48.590;8.866;2022-12-29T14:50:55;12.80;97.20
18291;DHT22;9271;48.590;8.866;2022-12-29T14:53:41;12.70;97.70
18291;DHT22;9271;48.590;8.866;2022-12-29T14:56:09;12.50;97.70
18291;DHT22;9271;48.590;8.866;2022-12-29T14:58:43;12.60;97.80
18291;DHT22;9271;48.590;8.866;2022-12-29T15:01:20;12.70;97.40
18291;DHT22;9271;48.590;8.866;2022-12-29T15:03:49;12.60;97.60
18291;DHT22;9271;48.590;8.866;2022-12-29T15:06:16;12.70;97.90
18291;DHT22;9271;48.590;8.866;2022-12-29T15:08:49;12.80;97.30
18291;DHT22;9271;48.590;8.866;2022-12-29T15:11:18;12.80;97.20
18291;DHT22;9271;48.590;8.866;2022-12-29T15:13:46;12.60;97.70
18291;DHT22;9271;48.590;8.866;2022-12-29T15:16:26;12.40;97.80
18291;DHT22;9271;48.590;8.866;2022-12-29T15:18:55;12.60;97.60
18291;DHT22;9271;48.590;8.866;2022-12-29T15:21:25;12.60;97.80
18291;DHT22;9271;48.590;8.866;2022-12-29T15:23:52;12.70;97.50
18291;DHT22;9271;48.590;8.866;2022-12-29T15:26:20;12.70;97.20
18291;DHT22;9271;48.590;8.866;2022-12-29T15:28:50;12.70;97.20
18291;DHT22;9271;48.590;8.866;2022-12-29T15:31:18;12.50;97.70
18291;DHT22;9271;48.590;8.866;2022-12-29T15:33:48;12.60;98.00
18291;DHT22;9271;48.590;8.866;2022-12-29T15:36:19;12.80;97.20
18291;DHT22;9271;48.590;8.866;2022-12-29T15:38:46;12.80;97.10
18291;DHT22;9271;48.590;8.866;2022-12-29T15:41:24;12.60;97.20
18291;DHT22;9271;48.590;8.866;2022-12-29T15:44:00;12.70;97.10
18291;DHT22;9271;48.590;8.866;2022-12-29T15:46:30;12.60;97.20
18291;DHT22;9271;48.590;8.866;2022-12-29T15:48:59;12.30;97.60
18291;DHT22;9271;48.590;8.866;2022-12-29T15:51:29;12.20;97.90
18291;DHT22;9271;48.590;8.866;2022-12-29T15:53:57;12.20;97.80
18291;DHT22;9271;48.590;8.866;2022-12-29T15:56:24;12.30;97.80
18291;DHT22;9271;48.590;8.866;2022-12-29T15:58:54;12.40;97.70
18291;DHT22;9271;48.590;8.866;2022-12-29T16:01:24;12.30;97.90
18291;DHT22;9271;48.590;8.866;2022-12-29T16:03:54;12.30;98.00
18291;DHT22;9271;48.590;8.866;2022-12-29T16:06:28;12.20;98.20
18291;DHT22;9271;48.590;8.866;2022-12-29T16:08:57;12.40;98.00
18291;DHT22;9271;48.590;8.866;2022-12-29T16:11:27;12.80;97.30
18291;DHT22;9271;48.590;8.866;2022-12-29T16:13:54;12.80;97.10
18291;DHT22;9271;48.590;8.866;2022-12-29T16:16:25;12.90;97.40
18291;DHT22;9271;48.590;8.866;2022-12-29T16:18:53;12.70;97.40
18291;DHT22;9271;48.590;8.866;2022-12-29T16:21:24;12.70;97.30